• Join FlightAware (Why Join?)
  • Login
  • US Flag 
12:26AM EDT


 

Airport Tracker/Info


-or-


 

Live Flight TrackerFlight Track Log ✈ N53NW ✈ 02-Sep-2013 ✈ KMCO - KPIE

Flight Track Log - Related Links

Times and Time Zones

All times are in EDT time to prevent confusion due to time zone crossing. See the N53NW flight status page for this flight to view local times or setup timezone preferences in your user account.

Time Position Orientation Groundspeed Altitude Reporting Facility
EDT Latitude Longitude Course Direction KTS MPH feet Rate Location/Type
01:29PM 28.4167 -81.3333 192° South 173 199 500  Level Orlando TRACON
01:30PM 28.3500 -81.3500 192° South 233 268 3,200 2,700 Climbing Orlando TRACON
01:31PM 28.3333 -81.4000 249° West 233 268 6,200 2,880 Climbing Orlando TRACON
01:32PM 28.3167 -81.4833 257° West 241 277 9,100 2,700 Climbing Orlando TRACON
01:33PM 28.3167 -81.5667 270° West 251 289 12,000 780 Climbing Orlando TRACON
01:36PM 28.3333 -81.7833 275° West 291 335 12,000  Level Tampa TRACON
01:37PM 28.3333 -81.8833 270° West 285 328 12,000  Level Tampa TRACON
01:38PM 28.3500 -81.9667 283° West 284 327 12,000  Level Tampa TRACON
01:39PM 28.3500 -82.0500 270° West 285 328 12,000 -780 Level Tampa TRACON
01:40PM 28.3500 -82.1333 270° West 287 330 10,500 -1,020 Descending Tampa TRACON
01:41PM 28.3667 -82.2333 281° West 274 315 10,000 -300 Descending Tampa TRACON
01:42PM 28.3500 -82.3000 254° West 279 321 10,000  Level Tampa TRACON
01:43PM 28.3500 -82.4167 270° West 279 321 10,000  Level Tampa TRACON
01:44PM 28.3500 -82.4833 270° West 278 320 10,000 -60 Level Tampa TRACON
01:45PM 28.3500 -82.5833 270° West 275 316 9,900 -960 Descending Tampa TRACON
01:46PM 28.3333 -82.6500 254° West 258 297 8,200 -1,380 Descending Tampa TRACON
01:47PM 28.3333 -82.7500 270° West 252 290 7,000 -600 Descending Tampa TRACON
01:48PM 28.3000 -82.8000 233° Southwest 257 296 7,000  Level Tampa TRACON
01:49PM 28.2333 -82.8167 192° South 257 296 7,000 -900 Level Tampa TRACON
01:50PM 28.1667 -82.8333 192° South 256 295 5,300 -1,500 Descending Tampa TRACON
01:51PM 28.0833 -82.8167 170° South 262 302 4,000 -660 Descending Tampa TRACON
01:52PM 28.0167 -82.8167 180° South 247 284 4,000 -300 Level Tampa TRACON
01:53PM 27.9500 -82.8000 168° South 241 277 3,400 -720 Descending Tampa TRACON
01:54PM 27.8833 -82.7833 168° South 240 276 2,600 -720 Descending Tampa TRACON
01:55PM 27.8333 -82.7500 149° Southeast 217 250 2,000 -540 Descending Tampa TRACON
01:56PM 27.8333 -82.7000 90° East 170 196 1,600 -600 Descending Tampa TRACON
01:57PM 27.8500 -82.6833 41° Northeast 128 147 900 -780 Descending Tampa TRACON